Dale, Oregon
Current Conditions -  °F | °C
As of 11:56 PM on Thursday 20 Nov 2014 (Local Time) from KMEH Reporting Station
Haze Haze  
Wind Chill: 30°   Ceiling: Unl
Heat Index: 30°   Visibility: 5mi
Dew Point: 27°   Wind: 0mph
Humidity: 88%   Direction: NA
Pressure: 29.96"   Gusts: NA
Location:  45.1348°N, 118.932°W
Report Text: KMEH 210756Z AUTO 00000KT 5SM BR CLR M01/M03 A2996 RMK AO2 SLP164 T10111028 400441017
Loading
Personal Weather Stations






























Interactive Weather Map New forecast layout! Learn more

10-Day Weather Forecast

Advertisements
Track Severe Weather on mobile